Time;durP1;ratioP1;P1;durP2;ratioP2;P2;SDS_P1;SDS_P2;PMS_P1;PMS_P2;Temp;Humidity;BMP_temperature;BMP_pressure;BME280_temperature;BME280_humidity;BME280_pressure;Samples;Min_cycle;Max_cycle;Signal;HPM_P1;HPM_P2
2023/06/29 00:02:47;;;;;;;;;;;;;;;20.83;40.98;100370.66;5405172;32;35270;-70
2023/06/29 00:05:49;;;;;;;;;;;;;;;20.40;41.84;100367.91;5382050;32;35562;-70
2023/06/29 00:08:51;;;;;;;;;;;;;;;20.67;41.32;100375.53;5402893;32;34391;-70
2023/06/29 00:11:54;;;;;;;;;;;;;;;20.15;42.37;100371.69;5408976;32;34997;-68
2023/06/29 00:14:56;;;;;;;;;;;;;;;19.99;42.63;100374.72;5406099;32;35728;-69
2023/06/29 00:17:59;;;;;;;;;;;;;;;20.18;42.35;100376.78;5402528;32;35037;-68
2023/06/29 00:21:04;;;;;;;;;;;;;;;20.09;42.59;100374.84;5408194;32;34548;-70
2023/06/29 00:24:10;;;;;;;;;;;;;;;20.35;41.92;100370.13;5403306;32;34454;-70
2023/06/29 00:27:13;;;;;;;;;;;;;;;20.11;42.70;100382.75;5407648;32;34875;-76
2023/06/29 00:30:15;;;;;;;;;;;;;;;20.42;42.01;100367.81;5389702;32;35213;-75
2023/06/29 00:33:20;;;;;;;;;;;;;;;20.46;41.74;100370.13;5390381;32;34913;-76
2023/06/29 00:36:22;;;;;;;;;;;;;;;19.57;43.87;100376.19;5408835;32;34494;-75
2023/06/29 00:39:24;;;;;;;;;;;;;;;19.94;43.10;100374.22;5404072;32;34980;-76
2023/06/29 00:42:26;;;;;;;;;;;;;;;20.21;42.65;100373.88;5405772;32;34847;-69
2023/06/29 00:45:28;;;;;;;;;;;;;;;20.16;42.98;100380.56;5401023;32;34799;-69
2023/06/29 00:48:29;;;;;;;;;;;;;;;20.23;42.80;100373.78;5406484;32;34948;-69
2023/06/29 00:51:32;;;;;;;;;;;;;;;20.45;42.25;100376.44;5406861;32;34928;-75
2023/06/29 00:54:34;;;;;;;;;;;;;;;19.84;43.96;100367.09;5402588;32;35376;-68
2023/06/29 00:57:39;;;;;;;;;;;;;;;20.67;42.02;100372.84;5406644;32;35150;-75
2023/06/29 01:00:41;;;;;;;;;;;;;;;20.17;42.95;100364.44;5403515;32;35999;-76
2023/06/29 01:03:43;;;;;;;;;;;;;;;20.29;42.96;100363.44;5405162;32;35570;-69
2023/06/29 01:06:48;;;;;;;;;;;;;;;19.83;43.13;100366.22;5388634;32;35042;-70
2023/06/29 01:09:50;;;;;;;;;;;;;;;19.81;43.69;100368.16;5393125;32;35081;-69
2023/06/29 01:12:53;;;;;;;;;;;;;;;19.99;43.01;100365.87;5401266;32;35335;-69
2023/06/29 01:15:55;;;;;;;;;;;;;;;20.39;42.49;100373.38;5403827;32;34958;-70
2023/06/29 01:18:57;;;;;;;;;;;;;;;20.26;43.32;100360.16;5404607;32;34877;-69
2023/06/29 01:22:03;;;;;;;;;;;;;;;20.26;44.22;100357.50;5389273;32;34864;-75
2023/06/29 01:25:05;;;;;;;;;;;;;;;20.33;44.24;100355.19;5407071;32;34848;-75
2023/06/29 01:28:07;;;;;;;;;;;;;;;20.33;43.24;100349.84;5401417;32;34936;-69
2023/06/29 01:31:09;;;;;;;;;;;;;;;20.33;42.68;100352.50;5409169;32;34728;-76
2023/06/29 01:34:12;;;;;;;;;;;;;;;20.29;42.26;100357.25;5403291;32;35060;-70
2023/06/29 01:37:18;;;;;;;;;;;;;;;20.91;40.69;100355.81;5403659;32;35421;-69
2023/06/29 01:40:21;;;;;;;;;;;;;;;20.41;42.04;100355.41;5405856;32;34964;-69
2023/06/29 01:43:24;;;;;;;;;;;;;;;20.29;42.46;100349.25;5399446;32;34744;-70
2023/06/29 01:46:26;;;;;;;;;;;;;;;19.36;44.36;100357.38;5378274;32;35525;-75
2023/06/29 01:49:28;;;;;;;;;;;;;;;19.57;44.55;100351.34;5388657;32;34783;-76
2023/06/29 01:52:30;;;;;;;;;;;;;;;19.67;42.98;100353.22;5406356;32;34746;-76
2023/06/29 01:55:32;;;;;;;;;;;;;;;19.79;43.55;100350.59;5403564;32;35194;-71
2023/06/29 01:58:34;;;;;;;;;;;;;;;20.27;42.16;100352.03;5401992;32;35414;-77
2023/06/29 02:01:36;;;;;;;;;;;;;;;19.71;43.80;100353.84;5406537;32;34430;-69
2023/06/29 02:04:39;;;;;;;;;;;;;;;20.01;42.08;100362.09;5400062;32;34402;-76
2023/06/29 02:07:41;;;;;;;;;;;;;;;20.03;42.78;100359.34;5408884;32;35904;-69
2023/06/29 02:10:43;;;;;;;;;;;;;;;19.61;43.67;100355.53;5402701;32;36553;-69
2023/06/29 02:13:45;;;;;;;;;;;;;;;19.42;43.33;100353.38;5402402;32;35041;-69
2023/06/29 02:16:47;;;;;;;;;;;;;;;19.35;43.77;100350.34;5405874;32;34996;-68
2023/06/29 02:19:49;;;;;;;;;;;;;;;19.62;43.46;100355.41;5400499;32;34185;-75
2023/06/29 02:22:51;;;;;;;;;;;;;;;20.33;42.02;100361.38;5406178;32;34812;-74
2023/06/29 02:25:53;;;;;;;;;;;;;;;19.76;42.79;100357.00;5402812;32;34844;-74
2023/06/29 02:28:55;;;;;;;;;;;;;;;19.15;45.09;100359.00;5404114;32;33649;-68
2023/06/29 02:31:57;;;;;;;;;;;;;;;19.81;42.94;100359.31;5402476;32;35271;-74
2023/06/29 02:34:58;;;;;;;;;;;;;;;19.21;44.47;100363.88;5403978;32;34502;-75
2023/06/29 02:38:01;;;;;;;;;;;;;;;19.63;43.35;100358.91;5404641;32;35128;-76
2023/06/29 02:41:02;;;;;;;;;;;;;;;19.34;45.05;100361.12;5401605;32;35349;-76
2023/06/29 02:44:05;;;;;;;;;;;;;;;19.93;43.76;100361.88;5402343;32;34410;-74
2023/06/29 02:47:07;;;;;;;;;;;;;;;19.23;45.21;100364.59;5400698;32;34856;-69
2023/06/29 02:50:09;;;;;;;;;;;;;;;19.09;46.41;100362.13;5390289;32;35667;-76
2023/06/29 02:53:14;;;;;;;;;;;;;;;19.15;47.15;100367.00;5402073;32;35823;-74
2023/06/29 02:56:16;;;;;;;;;;;;;;;19.12;47.45;100356.56;5390646;32;37208;-68
2023/06/29 02:59:18;;;;;;;;;;;;;;;18.74;47.64;100362.94;5404171;32;34926;-69
2023/06/29 03:02:20;;;;;;;;;;;;;;;19.31;46.85;100359.53;5403339;32;34698;-75
2023/06/29 03:05:22;;;;;;;;;;;;;;;18.79;48.33;100362.56;5404571;32;37294;-75
2023/06/29 03:08:24;;;;;;;;;;;;;;;18.68;49.47;100360.72;5388336;32;34986;-74
2023/06/29 03:11:26;;;;;;;;;;;;;;;18.99;48.34;100359.28;5407952;32;34765;-76
2023/06/29 03:14:28;;;;;;;;;;;;;;;19.03;47.65;100363.44;5387917;32;34522;-76
2023/06/29 03:17:29;;;;;;;;;;;;;;;19.47;47.03;100362.72;5403709;32;35134;-75
2023/06/29 03:20:31;;;;;;;;;;;;;;;19.67;46.05;100363.06;5404754;32;34529;-71
2023/06/29 03:23:33;;;;;;;;;;;;;;;19.58;46.17;100351.28;5386989;32;35147;-75
2023/06/29 03:26:35;;;;;;;;;;;;;;;19.31;46.32;100354.19;5380492;32;34721;-75
2023/06/29 03:29:37;;;;;;;;;;;;;;;19.29;45.61;100348.16;5401398;32;34796;-69
2023/06/29 03:32:39;;;;;;;;;;;;;;;19.33;45.50;100352.28;5405372;32;34840;-69
2023/06/29 03:35:41;;;;;;;;;;;;;;;19.19;47.04;100347.12;5401674;32;34148;-76
2023/06/29 03:38:44;;;;;;;;;;;;;;;19.52;44.23;100350.88;5402005;32;35913;-76
2023/06/29 03:41:46;;;;;;;;;;;;;;;20.39;42.75;100352.87;5404235;32;34892;-70
2023/06/29 03:44:48;;;;;;;;;;;;;;;20.65;42.63;100345.44;5399941;32;35430;-75
2023/06/29 03:47:50;;;;;;;;;;;;;;;20.64;41.87;100346.44;5392309;32;35668;-75
2023/06/29 03:50:52;;;;;;;;;;;;;;;20.29;42.02;100354.59;5402039;32;34970;-69
2023/06/29 03:53:54;;;;;;;;;;;;;;;19.91;42.58;100361.16;5390975;32;35699;-76
2023/06/29 03:56:56;;;;;;;;;;;;;;;19.46;43.95;100361.03;5402527;32;35025;-69
2023/06/29 03:59:57;;;;;;;;;;;;;;;19.95;43.23;100367.06;5400956;32;34354;-74
2023/06/29 04:02:59;;;;;;;;;;;;;;;19.97;43.35;100366.00;5377375;32;34782;-69
2023/06/29 04:06:01;;;;;;;;;;;;;;;20.77;41.69;100359.63;5401868;32;35399;-70
2023/06/29 04:09:03;;;;;;;;;;;;;;;20.28;42.56;100361.72;5405621;32;34722;-76
2023/06/29 04:12:06;;;;;;;;;;;;;;;20.08;42.88;100362.47;5405614;32;34430;-69
2023/06/29 04:15:08;;;;;;;;;;;;;;;20.27;42.54;100367.19;5408620;32;34889;-68
2023/06/29 04:18:10;;;;;;;;;;;;;;;20.93;41.92;100372.56;5400312;32;34784;-69
2023/06/29 04:21:11;;;;;;;;;;;;;;;20.77;42.15;100367.62;5402208;32;35398;-70
2023/06/29 04:24:13;;;;;;;;;;;;;;;20.35;43.25;100363.91;5406947;32;34645;-70
2023/06/29 04:27:16;;;;;;;;;;;;;;;19.68;44.49;100359.41;5404617;32;34914;-70
2023/06/29 04:30:18;;;;;;;;;;;;;;;20.12;43.84;100357.75;5405890;32;35138;-69
2023/06/29 04:33:21;;;;;;;;;;;;;;;20.28;43.09;100353.72;5389404;32;35032;-68
2023/06/29 04:36:23;;;;;;;;;;;;;;;20.90;42.20;100360.31;5407608;32;35386;-75
2023/06/29 04:39:25;;;;;;;;;;;;;;;21.11;41.64;100355.00;5402603;32;34775;-69
2023/06/29 04:42:30;;;;;;;;;;;;;;;20.55;42.59;100355.19;5401793;32;34692;-75
2023/06/29 04:45:32;;;;;;;;;;;;;;;20.53;42.73;100355.28;5378380;32;34410;-70
2023/06/29 04:48:37;;;;;;;;;;;;;;;20.64;42.81;100359.78;5387999;32;34710;-75
2023/06/29 04:51:40;;;;;;;;;;;;;;;20.70;42.96;100353.94;5407949;32;35080;-69
2023/06/29 04:54:41;;;;;;;;;;;;;;;21.25;41.77;100360.06;5403074;32;35628;-68
2023/06/29 04:57:44;;;;;;;;;;;;;;;20.59;43.08;100358.44;5406740;32;35930;-75
2023/06/29 05:00:46;;;;;;;;;;;;;;;21.15;41.85;100356.44;5391411;32;35385;-75
2023/06/29 05:03:48;;;;;;;;;;;;;;;21.46;41.25;100344.06;5401817;32;34024;-69
2023/06/29 05:06:50;;;;;;;;;;;;;;;23.24;38.17;100343.34;5406786;32;34652;-76
2023/06/29 05:09:52;;;;;;;;;;;;;;;23.43;37.28;100322.84;5373638;32;36170;-69
2023/06/29 05:12:54;;;;;;;;;;;;;;;23.32;37.74;100333.75;5407002;32;34984;-69
2023/06/29 05:15:56;;;;;;;;;;;;;;;23.56;37.20;100341.31;5401659;32;34667;-74
2023/06/29 05:18:58;;;;;;;;;;;;;;;22.69;39.01;100345.69;5400452;32;34915;-69
2023/06/29 05:22:00;;;;;;;;;;;;;;;23.26;38.35;100345.91;5404319;32;34387;-70
2023/06/29 05:25:02;;;;;;;;;;;;;;;25.04;35.06;100343.03;5403258;32;33391;-70
2023/06/29 05:28:04;;;;;;;;;;;;;;;25.34;34.70;100347.19;5393196;32;35590;-69
2023/06/29 05:31:06;;;;;;;;;;;;;;;24.01;37.34;100346.88;5404127;32;35421;-65
2023/06/29 05:34:08;;;;;;;;;;;;;;;24.18;36.67;100346.09;5406160;32;34412;-79
2023/06/29 05:37:10;;;;;;;;;;;;;;;24.02;37.25;100346.75;5403103;32;34904;-78
2023/06/29 05:40:12;;;;;;;;;;;;;;;25.02;35.71;100339.66;5404304;32;34604;-64
2023/06/29 05:43:14;;;;;;;;;;;;;;;24.72;36.34;100347.06;5400070;32;35057;-65
2023/06/29 05:46:17;;;;;;;;;;;;;;;24.12;37.25;100352.06;5402318;32;34520;-64
2023/06/29 05:49:19;;;;;;;;;;;;;;;23.92;37.29;100359.34;5405774;32;34797;-77
2023/06/29 05:52:22;;;;;;;;;;;;;;;23.64;38.13;100355.75;5403101;32;34297;-78
2023/06/29 05:55:24;;;;;;;;;;;;;;;24.09;37.24;100360.41;5400917;32;34660;-80
2023/06/29 05:58:26;;;;;;;;;;;;;;;23.49;38.31;100358.00;5384180;32;34822;-79
2023/06/29 06:01:28;;;;;;;;;;;;;;;23.95;37.84;100347.44;5399298;32;34270;-70
2023/06/29 06:04:30;;;;;;;;;;;;;;;25.85;34.71;100351.78;5399938;32;35076;-70
2023/06/29 06:07:35;;;;;;;;;;;;;;;25.79;34.75;100340.81;5400119;32;35633;-77
2023/06/29 06:10:38;;;;;;;;;;;;;;;25.08;35.50;100347.97;5397158;32;34908;-78
2023/06/29 06:13:40;;;;;;;;;;;;;;;25.61;35.44;100354.28;5397239;32;35250;-71
2023/06/29 06:16:42;;;;;;;;;;;;;;;24.95;35.80;100352.87;5407389;32;34847;-69
2023/06/29 06:19:46;;;;;;;;;;;;;;;24.64;36.82;100357.75;5401939;32;34944;-70
2023/06/29 06:22:48;;;;;;;;;;;;;;;24.56;37.42;100363.03;5398525;32;35231;-70
2023/06/29 06:25:50;;;;;;;;;;;;;;;25.57;35.36;100363.69;5402936;32;34395;-79
2023/06/29 06:28:52;;;;;;;;;;;;;;;26.27;34.35;100350.97;5399558;32;34364;-79
2023/06/29 06:31:54;;;;;;;;;;;;;;;26.52;34.03;100348.38;5404599;32;35024;-70
2023/06/29 06:34:57;;;;;;;;;;;;;;;26.89;33.20;100340.72;5396122;32;35881;-70
2023/06/29 06:37:59;;;;;;;;;;;;;;;26.70;33.76;100357.22;5389570;32;33858;-70
2023/06/29 06:41:01;;;;;;;;;;;;;;;26.44;33.75;100355.44;5398164;32;34337;-79
2023/06/29 06:44:03;;;;;;;;;;;;;;;27.12;32.92;100357.16;5398499;32;34347;-78
2023/06/29 06:47:09;;;;;;;;;;;;;;;25.32;35.96;100373.41;5404469;32;37850;-79
2023/06/29 06:50:11;;;;;;;;;;;;;;;27.29;32.75;100347.19;5396278;32;34353;-79
2023/06/29 06:53:13;;;;;;;;;;;;;;;27.18;33.30;100348.38;5402888;32;32980;-80
2023/06/29 06:56:18;;;;;;;;;;;;;;;27.18;33.22;100347.53;5398906;32;33363;-79
2023/06/29 06:59:20;;;;;;;;;;;;;;;28.88;30.47;100357.00;5388231;32;34029;-69
2023/06/29 07:02:22;;;;;;;;;;;;;;;27.55;32.55;100355.09;5397467;32;35418;-71
2023/06/29 07:05:24;;;;;;;;;;;;;;;28.11;31.90;100364.12;5400918;32;34858;-69
2023/06/29 07:08:30;;;;;;;;;;;;;;;27.95;32.03;100364.16;5399738;32;34283;-76
2023/06/29 07:11:32;;;;;;;;;;;;;;;26.95;33.98;100356.25;5400617;32;33477;-75
2023/06/29 07:14:34;;;;;;;;;;;;;;;28.53;31.48;100355.72;5402021;32;36098;-69
2023/06/29 07:17:36;;;;;;;;;;;;;;;28.13;32.16;100361.25;5388585;32;33231;-69
2023/06/29 07:20:38;;;;;;;;;;;;;;;27.07;34.23;100359.50;5396777;32;34514;-69
2023/06/29 07:23:45;;;;;;;;;;;;;;;27.38;33.47;100356.97;5396135;32;35389;-76
2023/06/29 07:26:50;;;;;;;;;;;;;;;27.95;33.00;100353.34;5363219;32;870665;-76
2023/06/29 07:29:53;;;;;;;;;;;;;;;29.26;31.05;100351.69;5402802;32;34836;-69
2023/06/29 07:32:55;;;;;;;;;;;;;;;29.90;29.45;100362.09;5397970;32;34270;-69
2023/06/29 07:36:04;;;;;;;;;;;;;;;28.24;32.59;100363.56;5405441;32;34234;-69
2023/06/29 07:39:07;;;;;;;;;;;;;;;27.43;33.53;100364.53;5363874;32;35992;-69
2023/06/29 07:42:09;;;;;;;;;;;;;;;28.69;31.79;100367.44;5390991;32;34651;-69
2023/06/29 07:45:13;;;;;;;;;;;;;;;28.46;31.86;100368.22;5400247;32;34361;-69
2023/06/29 07:48:16;;;;;;;;;;;;;;;27.60;33.38;100368.09;5390340;32;34231;-70
2023/06/29 07:51:20;;;;;;;;;;;;;;;27.17;34.49;100370.13;5405398;32;35488;-69
2023/06/29 07:54:22;;;;;;;;;;;;;;;29.65;30.49;100356.94;5391095;32;34545;-78
2023/06/29 07:57:26;;;;;;;;;;;;;;;28.38;32.40;100364.72;5394107;32;35123;-69
2023/06/29 08:00:31;;;;;;;;;;;;;;;28.11;33.07;100368.69;5405502;32;34770;-77
2023/06/29 08:03:33;;;;;;;;;;;;;;;30.19;29.21;100356.69;5400293;32;34326;-70
2023/06/29 08:06:55;;;;;;;;;;;;;;;30.39;29.58;100356.94;5391056;32;34977;-77
2023/06/29 08:09:58;;;;;;;;;;;;;;;31.36;27.77;100343.00;5392297;32;35688;-69
2023/06/29 08:13:01;;;;;;;;;;;;;;;29.17;31.52;100357.31;5389803;32;35129;-77
2023/06/29 08:16:06;;;;;;;;;;;;;;;30.69;28.74;100348.78;5388622;32;37495;-78
2023/06/29 08:19:09;;;;;;;;;;;;;;;31.46;27.82;100338.06;5376886;32;34514;-77
2023/06/29 08:22:11;;;;;;;;;;;;;;;32.23;26.48;100339.00;5402538;32;34734;-71
2023/06/29 08:25:13;;;;;;;;;;;;;;;32.04;26.71;100348.72;5394276;32;34337;-70
2023/06/29 08:28:15;;;;;;;;;;;;;;;32.30;26.72;100346.13;5400117;32;35808;-71
2023/06/29 08:31:19;;;;;;;;;;;;;;;30.88;27.84;100350.88;5385043;32;34418;-69
2023/06/29 08:34:22;;;;;;;;;;;;;;;32.22;26.36;100340.88;5395161;32;34506;-70
2023/06/29 08:37:24;;;;;;;;;;;;;;;30.28;29.15;100348.50;5402166;32;36183;-76
2023/06/29 08:40:26;;;;;;;;;;;;;;;30.66;28.50;100351.88;5406899;32;35455;-77
2023/06/29 08:43:28;;;;;;;;;;;;;;;30.65;28.58;100340.16;5395575;32;35547;-69
2023/06/29 08:46:31;;;;;;;;;;;;;;;31.20;27.44;100348.69;5401912;32;35163;-70
2023/06/29 08:49:36;;;;;;;;;;;;;;;31.14;27.71;100341.31;5384067;32;34949;-78
2023/06/29 08:52:39;;;;;;;;;;;;;;;30.55;28.68;100349.66;5395503;32;35400;-72
2023/06/29 08:55:43;;;;;;;;;;;;;;;31.44;27.51;100340.16;5394058;32;35432;-71
2023/06/29 08:58:45;;;;;;;;;;;;;;;31.05;28.00;100332.47;5402968;32;34450;-78
2023/06/29 09:01:50;;;;;;;;;;;;;;;32.84;25.76;100339.00;5405733;32;35321;-69
2023/06/29 09:04:54;;;;;;;;;;;;;;;33.12;24.99;100331.56;5384823;32;35053;-77
2023/06/29 09:07:57;;;;;;;;;;;;;;;33.09;25.02;100333.84;5403390;32;36137;-70
2023/06/29 09:10:59;;;;;;;;;;;;;;;33.33;24.82;100337.84;5395175;32;34377;-70
2023/06/29 09:14:02;;;;;;;;;;;;;;;32.13;25.87;100344.78;5391602;32;36326;-79
2023/06/29 09:17:11;;;;;;;;;;;;;;;30.88;28.54;100340.03;5382564;32;35200;-79
2023/06/29 09:20:19;;;;;;;;;;;;;;;30.03;28.88;100350.62;5391104;32;35906;-69
2023/06/29 09:23:22;;;;;;;;;;;;;;;31.58;27.13;100338.37;5393130;32;34315;-78
2023/06/29 09:26:28;;;;;;;;;;;;;;;31.47;26.96;100342.47;5399667;32;35936;-71
2023/06/29 09:29:35;;;;;;;;;;;;;;;30.38;28.82;100332.75;5393360;32;36332;-69
2023/06/29 09:32:40;;;;;;;;;;;;;;;30.71;28.26;100333.16;5383847;32;34243;-79
2023/06/29 09:35:47;;;;;;;;;;;;;;;32.15;26.48;100331.84;5405527;32;35546;-79
2023/06/29 09:38:49;;;;;;;;;;;;;;;29.24;29.92;100337.50;5400571;32;36041;-70
2023/06/29 09:41:52;;;;;;;;;;;;;;;29.75;29.59;100336.84;5400441;32;34252;-79
2023/06/29 09:45:00;;;;;;;;;;;;;;;30.66;28.36;100336.44;5384837;32;35526;-70
2023/06/29 09:48:10;;;;;;;;;;;;;;;32.73;25.72;100323.31;5386813;32;34397;-70
2023/06/29 09:51:22;;;;;;;;;;;;;;;30.53;28.40;100338.13;5396736;32;34070;-71
2023/06/29 09:54:25;;;;;;;;;;;;;;;28.72;30.96;100348.97;5398606;32;34880;-73
2023/06/29 09:57:27;;;;;;;;;;;;;;;28.82;31.45;100340.66;5400338;32;34507;-70
2023/06/29 10:00:32;;;;;;;;;;;;;;;30.58;28.46;100328.41;5398040;32;34358;-84
2023/06/29 10:03:34;;;;;;;;;;;;;;;29.57;30.01;100338.06;5401472;32;35516;-73
2023/06/29 10:06:50;;;;;;;;;;;;;;;30.00;28.89;100335.56;5398146;32;34264;-77
2023/06/29 10:09:52;;;;;;;;;;;;;;;29.82;29.15;100329.66;5402901;32;34440;-77
2023/06/29 10:12:57;;;;;;;;;;;;;;;29.69;29.34;100327.63;5388191;32;34660;-71
2023/06/29 10:15:59;;;;;;;;;;;;;;;29.30;29.58;100333.19;5407562;32;35625;-73
2023/06/29 10:19:08;;;;;;;;;;;;;;;29.41;30.06;100336.31;5393619;32;36639;-75
2023/06/29 10:22:11;;;;;;;;;;;;;;;28.37;31.39;100334.16;5388255;32;34235;-81
2023/06/29 10:25:17;;;;;;;;;;;;;;;29.05;30.52;100329.88;5378851;32;34480;-79
2023/06/29 10:28:19;;;;;;;;;;;;;;;31.07;28.18;100326.84;5398472;32;34447;-78
2023/06/29 10:31:29;;;;;;;;;;;;;;;30.01;29.58;100328.25;5400948;32;35557;-76
2023/06/29 10:34:31;;;;;;;;;;;;;;;29.66;30.15;100319.88;5397671;32;34744;-72
2023/06/29 10:37:34;;;;;;;;;;;;;;;30.07;29.49;100324.81;5403428;32;34271;-75
2023/06/29 10:40:45;;;;;;;;;;;;;;;30.29;29.22;100312.22;5404644;32;34319;-73
2023/06/29 10:43:54;;;;;;;;;;;;;;;31.63;26.57;100314.19;5386784;32;35587;-74
2023/06/29 10:46:58;;;;;;;;;;;;;;;32.01;26.34;100319.22;5395656;32;36439;-73
2023/06/29 10:50:14;;;;;;;;;;;;;;;31.09;27.07;100319.34;5403001;32;34264;-71
2023/06/29 10:53:17;;;;;;;;;;;;;;;30.48;27.99;100327.88;5401237;32;34319;-74
2023/06/29 10:56:29;;;;;;;;;;;;;;;29.88;28.92;100323.50;5401633;32;35139;-71
2023/06/29 10:59:33;;;;;;;;;;;;;;;30.31;28.22;100326.41;5399333;32;34382;-74
2023/06/29 11:02:35;;;;;;;;;;;;;;;31.11;27.44;100317.25;5399763;32;34370;-78
2023/06/29 11:05:38;;;;;;;;;;;;;;;30.51;27.74;100310.38;5394051;32;35152;-72
2023/06/29 11:08:43;;;;;;;;;;;;;;;32.11;25.79;100306.09;5387411;32;35353;-72
2023/06/29 11:11:47;;;;;;;;;;;;;;;31.27;26.75;100308.88;5397759;32;34540;-76
2023/06/29 11:14:50;;;;;;;;;;;;;;;31.78;26.43;100301.34;5402949;32;34328;-70
2023/06/29 11:18:12;;;;;;;;;;;;;;;31.86;26.01;100304.94;5404300;32;34496;-73
2023/06/29 11:21:18;;;;;;;;;;;;;;;33.31;24.13;100305.37;5401862;32;34930;-68
2023/06/29 11:24:22;;;;;;;;;;;;;;;32.26;25.32;100295.91;5396912;32;34926;-69
2023/06/29 11:27:24;;;;;;;;;;;;;;;33.28;24.30;100294.87;5401963;32;34774;-71
2023/06/29 11:30:26;;;;;;;;;;;;;;;33.96;23.28;100296.53;5390546;32;34352;-69
2023/06/29 11:33:32;;;;;;;;;;;;;;;33.33;24.10;100300.56;5388894;32;34985;-69
2023/06/29 11:36:36;;;;;;;;;;;;;;;34.08;23.08;100290.19;5400453;32;35082;-69
2023/06/29 11:39:39;;;;;;;;;;;;;;;30.60;27.07;100293.81;5404303;32;35240;-72
2023/06/29 11:42:41;;;;;;;;;;;;;;;32.93;24.63;100288.00;5391098;32;35355;-72
2023/06/29 11:45:45;;;;;;;;;;;;;;;32.29;25.20;100295.53;5400905;32;35384;-69
2023/06/29 11:48:54;;;;;;;;;;;;;;;30.08;28.23;100305.66;5401480;32;35595;-70
2023/06/29 11:51:56;;;;;;;;;;;;;;;29.74;28.79;100298.09;5398659;32;35821;-68
2023/06/29 11:55:02;;;;;;;;;;;;;;;30.25;28.53;100297.34;5402578;32;35909;-71
2023/06/29 11:58:04;;;;;;;;;;;;;;;29.24;29.93;100306.84;5396408;32;34231;-68
2023/06/29 12:01:06;;;;;;;;;;;;;;;30.90;26.78;100289.09;5403524;32;34430;-68
2023/06/29 12:04:09;;;;;;;;;;;;;;;31.79;24.82;100286.72;5384110;32;35575;-68
2023/06/29 12:07:11;;;;;;;;;;;;;;;32.34;24.25;100282.19;5399449;32;35972;-70
2023/06/29 12:10:16;;;;;;;;;;;;;;;30.29;27.07;100283.22;5384494;32;34661;-75
2023/06/29 12:13:19;;;;;;;;;;;;;;;30.81;26.47;100278.59;5396739;32;34403;-70
2023/06/29 12:16:21;;;;;;;;;;;;;;;30.33;27.37;100283.66;5395151;32;34695;-77
2023/06/29 12:19:35;;;;;;;;;;;;;;;29.56;28.21;100284.94;5385006;32;34510;-69
2023/06/29 12:22:45;;;;;;;;;;;;;;;29.10;29.42;100279.56;5400851;32;35414;-69
2023/06/29 12:25:49;;;;;;;;;;;;;;;29.15;29.15;100270.91;5394850;32;34495;-72
2023/06/29 12:28:51;;;;;;;;;;;;;;;28.50;30.33;100266.84;5390000;32;34839;-75
2023/06/29 12:32:00;;;;;;;;;;;;;;;28.51;30.15;100260.41;5401258;32;34723;-74
2023/06/29 12:35:02;;;;;;;;;;;;;;;28.70;29.62;100269.06;5387823;32;34547;-72
2023/06/29 12:38:04;;;;;;;;;;;;;;;28.00;31.04;100267.25;5394370;32;35453;-85
2023/06/29 12:41:06;;;;;;;;;;;;;;;28.55;30.42;100258.19;5398882;32;34366;-81
2023/06/29 12:44:08;;;;;;;;;;;;;;;28.05;30.77;100257.59;5403240;32;33506;-72
2023/06/29 12:47:10;;;;;;;;;;;;;;;28.16;30.90;100258.22;5400081;32;33893;-75
2023/06/29 12:50:13;;;;;;;;;;;;;;;28.93;29.37;100245.59;5402345;32;34499;-72
2023/06/29 12:53:15;;;;;;;;;;;;;;;28.84;30.15;100252.03;5399078;32;34340;-72
2023/06/29 12:56:17;;;;;;;;;;;;;;;29.12;29.82;100253.19;5395827;32;34430;-72
2023/06/29 12:59:19;;;;;;;;;;;;;;;29.25;29.54;100249.03;5404925;32;34372;-73
2023/06/29 13:02:21;;;;;;;;;;;;;;;29.63;28.70;100242.56;5375369;32;34255;-71
2023/06/29 13:05:23;;;;;;;;;;;;;;;29.75;28.11;100242.88;5391428;32;35297;-75
2023/06/29 13:08:26;;;;;;;;;;;;;;;29.34;29.10;100237.91;5397882;32;34560;-73
2023/06/29 13:11:28;;;;;;;;;;;;;;;29.53;28.37;100241.97;5397550;32;35079;-73
2023/06/29 13:14:34;;;;;;;;;;;;;;;29.72;27.08;100239.75;5407013;32;34752;-69
2023/06/29 13:17:36;;;;;;;;;;;;;;;29.86;26.89;100237.00;5395677;32;34941;-68
2023/06/29 13:20:38;;;;;;;;;;;;;;;29.27;28.07;100236.16;5402531;32;35569;-73
2023/06/29 13:23:40;;;;;;;;;;;;;;;28.49;29.56;100227.31;5403187;32;34911;-73
2023/06/29 13:26:43;;;;;;;;;;;;;;;29.25;28.66;100225.50;5385481;32;34994;-69
2023/06/29 13:29:44;;;;;;;;;;;;;;;29.84;27.51;100222.81;5401812;32;34389;-74
2023/06/29 13:32:46;;;;;;;;;;;;;;;29.20;28.41;100227.91;5383386;32;34737;-70
2023/06/29 13:35:52;;;;;;;;;;;;;;;29.75;28.17;100220.37;5407454;32;37751;-75
2023/06/29 13:38:54;;;;;;;;;;;;;;;28.98;28.61;100218.84;5401854;32;35895;-73
2023/06/29 13:41:56;;;;;;;;;;;;;;;29.36;28.04;100218.78;5405167;32;34604;-70
2023/06/29 13:44:57;;;;;;;;;;;;;;;30.12;27.54;100216.72;5397137;32;34553;-69
2023/06/29 13:48:00;;;;;;;;;;;;;;;29.79;27.77;100219.84;5403061;32;34373;-70
2023/06/29 13:51:02;;;;;;;;;;;;;;;28.48;29.23;100224.78;5401359;32;34387;-69
2023/06/29 13:54:05;;;;;;;;;;;;;;;29.78;27.76;100217.31;5400908;32;34721;-71
2023/06/29 13:57:07;;;;;;;;;;;;;;;29.51;28.42;100219.69;5399025;32;34537;-74
2023/06/29 14:00:09;;;;;;;;;;;;;;;29.71;27.40;100205.56;5400151;32;34225;-72
2023/06/29 14:03:12;;;;;;;;;;;;;;;30.45;26.06;100198.94;5387431;32;35068;-70
2023/06/29 14:06:18;;;;;;;;;;;;;;;29.87;27.27;100199.91;5398598;32;33960;-69
2023/06/29 14:09:21;;;;;;;;;;;;;;;30.52;26.60;100196.28;5397647;32;36272;-70
2023/06/29 14:12:23;;;;;;;;;;;;;;;29.73;27.68;100195.38;5401760;32;34290;-70
2023/06/29 14:15:25;;;;;;;;;;;;;;;29.60;28.24;100194.16;5400387;32;36252;-70
2023/06/29 14:18:27;;;;;;;;;;;;;;;28.66;29.23;100192.91;5403631;32;35616;-70
2023/06/29 14:21:29;;;;;;;;;;;;;;;28.24;29.58;100190.63;5396777;32;34291;-71
2023/06/29 14:24:31;;;;;;;;;;;;;;;29.17;28.69;100187.69;5402936;32;34640;-71
2023/06/29 14:27:33;;;;;;;;;;;;;;;29.41;28.39;100192.00;5385775;32;34267;-71
2023/06/29 14:30:35;;;;;;;;;;;;;;;28.94;28.83;100192.34;5387298;32;34266;-71
2023/06/29 14:33:37;;;;;;;;;;;;;;;29.75;28.06;100179.75;5401420;32;34853;-71
2023/06/29 14:36:39;;;;;;;;;;;;;;;29.78;28.17;100180.22;5399110;32;35336;-70
2023/06/29 14:39:41;;;;;;;;;;;;;;;30.11;27.28;100174.38;5405044;32;34693;-70
2023/06/29 14:42:44;;;;;;;;;;;;;;;29.89;28.01;100178.91;5402474;32;34961;-69
2023/06/29 14:45:45;;;;;;;;;;;;;;;29.88;27.28;100169.09;5406451;32;34714;-69
2023/06/29 14:48:48;;;;;;;;;;;;;;;29.79;27.33;100164.81;5403025;32;37985;-70
2023/06/29 14:51:50;;;;;;;;;;;;;;;29.72;27.51;100166.63;5403834;32;33971;-70
2023/06/29 14:54:52;;;;;;;;;;;;;;;30.22;26.83;100162.22;5406939;32;35451;-70
2023/06/29 14:57:54;;;;;;;;;;;;;;;30.45;26.50;100166.37;5404104;32;35371;-70
2023/06/29 15:00:56;;;;;;;;;;;;;;;29.39;27.68;100169.69;5407932;32;35116;-70
2023/06/29 15:03:58;;;;;;;;;;;;;;;29.68;27.60;100164.25;5400856;32;34940;-71
2023/06/29 15:07:00;;;;;;;;;;;;;;;29.89;27.44;100152.66;5402245;32;35096;-69
2023/06/29 15:10:02;;;;;;;;;;;;;;;30.16;26.99;100161.94;5402598;32;35405;-70
2023/06/29 15:13:04;;;;;;;;;;;;;;;30.03;27.34;100160.94;5402924;32;35404;-70
2023/06/29 15:16:06;;;;;;;;;;;;;;;30.58;26.51;100162.97;5406739;32;35097;-70
2023/06/29 15:19:08;;;;;;;;;;;;;;;29.29;27.75;100167.25;5397557;32;35189;-71
2023/06/29 15:22:10;;;;;;;;;;;;;;;29.85;27.43;100159.47;5399346;32;35727;-71
2023/06/29 15:25:12;;;;;;;;;;;;;;;29.53;28.14;100154.50;5399025;32;34247;-70
2023/06/29 15:28:14;;;;;;;;;;;;;;;28.31;29.99;100165.44;5406464;32;34502;-71
2023/06/29 15:31:16;;;;;;;;;;;;;;;28.56;29.86;100166.09;5387214;32;34655;-71
2023/06/29 15:34:18;;;;;;;;;;;;;;;29.39;28.87;100162.41;5405135;32;34939;-71
2023/06/29 15:37:20;;;;;;;;;;;;;;;29.64;28.40;100146.72;5405386;32;34499;-69
2023/06/29 15:40:22;;;;;;;;;;;;;;;29.06;29.25;100161.09;5399911;32;35278;-70